Terminal Aerodrome Forecast
Issued by NWS

Home | Current Version | Previous Version | Graphics & Text | Print | Product List | Glossary On
Versions: 1 2 3 4 5 6 7 8 9 10 11 12 13 14 15 16 17 18
000
FTUS43 KBIS 301739
TAFMOT
TAF
KMOT 301739Z 3018/3118 17014G22KT P6SM BKN250
     FM310100 30010KT P6SM VCSH BKN080 BKN120
     FM310900 28008KT P6SM SCT040 BKN080
     FM311400 28015G24KT P6SM SCT080=

USA.gov is the U.S. government's official web portal to all federal, state and local government web resources and services.